sensor_id;sensor_type;location;lat;lon;timestamp;pressure;altitude;pressure_sealevel;temperature;humidity
84134;BME280;74235;48.688;9.708;2023-11-21T00:00:07;97067.84;;;20.93;52.78
84134;BME280;74235;48.688;9.708;2023-11-21T00:02:39;97060.81;;;20.92;54.07
84134;BME280;74235;48.688;9.708;2023-11-21T00:05:08;97061.41;;;20.89;54.01
84134;BME280;74235;48.688;9.708;2023-11-21T00:07:36;97059.22;;;20.91;52.40
84134;BME280;74235;48.688;9.708;2023-11-21T00:10:05;97051.13;;;20.91;53.60
84134;BME280;74235;48.688;9.708;2023-11-21T00:12:33;97055.41;;;20.92;54.04
84134;BME280;74235;48.688;9.708;2023-11-21T00:15:01;97059.22;;;20.91;54.20
84134;BME280;74235;48.688;9.708;2023-11-21T00:17:38;97053.81;;;20.91;54.08
84134;BME280;74235;48.688;9.708;2023-11-21T00:20:07;97046.78;;;20.90;52.52
84134;BME280;74235;48.688;9.708;2023-11-21T00:22:35;97053.81;;;20.91;53.22
84134;BME280;74235;48.688;9.708;2023-11-21T00:25:04;97048.41;;;20.91;52.62
84134;BME280;74235;48.688;9.708;2023-11-21T00:27:31;97038.69;;;20.90;52.71
84134;BME280;74235;48.688;9.708;2023-11-21T00:29:59;97041.41;;;20.90;53.74
84134;BME280;74235;48.688;9.708;2023-11-21T00:32:27;97041.41;;;20.90;53.95
84134;BME280;74235;48.688;9.708;2023-11-21T00:34:55;97029.00;;;20.89;53.61
84134;BME280;74235;48.688;9.708;2023-11-21T00:37:23;97034.41;;;20.89;53.38
84134;BME280;74235;48.688;9.708;2023-11-21T00:39:51;97035.22;;;20.89;52.72
84134;BME280;74235;48.688;9.708;2023-11-21T00:42:18;97035.22;;;20.89;52.48
84134;BME280;74235;48.688;9.708;2023-11-21T00:44:46;97023.91;;;20.87;52.97
84134;BME280;74235;48.688;9.708;2023-11-21T00:47:13;97027.41;;;20.88;54.24
84134;BME280;74235;48.688;9.708;2023-11-21T00:49:41;97028.53;;;20.87;53.87
84134;BME280;74235;48.688;9.708;2023-11-21T00:52:10;97025.00;;;20.86;52.62
84134;BME280;74235;48.688;9.708;2023-11-21T00:54:37;97025.00;;;20.86;52.27
84134;BME280;74235;48.688;9.708;2023-11-21T00:57:05;97033.09;;;20.86;53.22
84134;BME280;74235;48.688;9.708;2023-11-21T00:59:32;97027.72;;;20.86;53.42
84134;BME280;74235;48.688;9.708;2023-11-21T01:02:00;97021.78;;;20.84;52.70
84134;BME280;74235;48.688;9.708;2023-11-21T01:04:28;97018.81;;;20.86;52.42
84134;BME280;74235;48.688;9.708;2023-11-21T01:06:56;97025.81;;;20.87;53.61
84134;BME280;74235;48.688;9.708;2023-11-21T01:09:25;97028.53;;;20.87;52.86
84134;BME280;74235;48.688;9.708;2023-11-21T01:11:53;97028.19;;;20.88;53.42
84134;BME280;74235;48.688;9.708;2023-11-21T01:14:20;97031.72;;;20.89;54.14
84134;BME280;74235;48.688;9.708;2023-11-21T01:16:48;97029.81;;;20.89;53.94
84134;BME280;74235;48.688;9.708;2023-11-21T01:19:16;97025.19;;;20.90;53.03
84134;BME280;74235;48.688;9.708;2023-11-21T01:21:44;97023.59;;;20.89;52.87
84134;BME280;74235;48.688;9.708;2023-11-21T01:24:11;97028.72;;;20.90;53.03
84134;BME280;74235;48.688;9.708;2023-11-21T01:26:40;97026.00;;;20.90;53.42
84134;BME280;74235;48.688;9.708;2023-11-21T01:29:07;97025.19;;;20.90;52.41
84134;BME280;74235;48.688;9.708;2023-11-21T01:31:35;97023.31;;;20.90;53.36
84134;BME280;74235;48.688;9.708;2023-11-21T01:34:03;97027.91;;;20.90;53.64
84134;BME280;74235;48.688;9.708;2023-11-21T01:36:30;97024.41;;;20.89;52.43
84134;BME280;74235;48.688;9.708;2023-11-21T01:38:59;97026.81;;;20.91;53.02
84134;BME280;74235;48.688;9.708;2023-11-21T01:41:27;97031.41;;;20.90;52.48
84134;BME280;74235;48.688;9.708;2023-11-21T01:43:59;97025.72;;;20.92;53.57
84134;BME280;74235;48.688;9.708;2023-11-21T01:46:27;97020.31;;;20.92;53.22
84134;BME280;74235;48.688;9.708;2023-11-21T01:48:54;97033.00;;;20.91;52.11
84134;BME280;74235;48.688;9.708;2023-11-21T01:51:22;97022.22;;;20.91;53.01
84134;BME280;74235;48.688;9.708;2023-11-21T01:53:49;97019.81;;;20.90;52.10
84134;BME280;74235;48.688;9.708;2023-11-21T01:56:17;97023.88;;;20.92;52.28
84134;BME280;74235;48.688;9.708;2023-11-21T01:58:45;97025.72;;;20.92;51.91
84134;BME280;74235;48.688;9.708;2023-11-21T02:01:15;97027.59;;;20.91;53.02
84134;BME280;74235;48.688;9.708;2023-11-21T02:03:45;97015.22;;;20.90;53.57
84134;BME280;74235;48.688;9.708;2023-11-21T02:06:13;97020.63;;;20.90;52.43
84134;BME280;74235;48.688;9.708;2023-11-21T02:08:40;97022.22;;;20.91;52.87
84134;BME280;74235;48.688;9.708;2023-11-21T02:11:12;97021.44;;;20.91;53.67
84134;BME280;74235;48.688;9.708;2023-11-21T02:13:40;97022.22;;;20.91;51.89
84134;BME280;74235;48.688;9.708;2023-11-21T02:16:11;97016.81;;;20.91;52.48
84134;BME280;74235;48.688;9.708;2023-11-21T02:18:41;97015.22;;;20.90;53.80
84134;BME280;74235;48.688;9.708;2023-11-21T02:21:09;97021.44;;;20.91;53.88
84134;BME280;74235;48.688;9.708;2023-11-21T02:23:38;97019.81;;;20.90;53.83
84134;BME280;74235;48.688;9.708;2023-11-21T02:26:09;97026.81;;;20.91;52.21
84134;BME280;74235;48.688;9.708;2023-11-21T02:28:37;97019.81;;;20.90;52.64
84134;BME280;74235;48.688;9.708;2023-11-21T02:31:06;97019.81;;;20.90;53.33
84134;BME280;74235;48.688;9.708;2023-11-21T02:33:35;97015.50;;;20.89;51.85
84134;BME280;74235;48.688;9.708;2023-11-21T02:36:03;97010.69;;;20.86;52.08
84134;BME280;74235;48.688;9.708;2023-11-21T02:38:31;97010.13;;;20.89;52.47
84134;BME280;74235;48.688;9.708;2023-11-21T02:40:59;97014.41;;;20.90;52.37
84134;BME280;74235;48.688;9.708;2023-11-21T02:43:27;97018.22;;;20.89;52.36
84134;BME280;74235;48.688;9.708;2023-11-21T02:45:54;97017.41;;;20.88;52.72
84134;BME280;74235;48.688;9.708;2023-11-21T02:48:22;97016.63;;;20.88;51.92
84134;BME280;74235;48.688;9.708;2023-11-21T02:50:53;97018.22;;;20.89;52.91
84134;BME280;74235;48.688;9.708;2023-11-21T02:53:20;97012.00;;;20.88;52.97
84134;BME280;74235;48.688;9.708;2023-11-21T02:55:48;97011.22;;;20.88;52.10
84134;BME280;74235;48.688;9.708;2023-11-21T02:58:17;97012.00;;;20.88;53.01
84134;BME280;74235;48.688;9.708;2023-11-21T03:00:44;97007.72;;;20.87;51.67
84134;BME280;74235;48.688;9.708;2023-11-21T03:03:12;97004.22;;;20.87;52.50
84134;BME280;74235;48.688;9.708;2023-11-21T03:05:40;97004.22;;;20.87;53.59
84134;BME280;74235;48.688;9.708;2023-11-21T03:08:07;97009.63;;;20.87;51.81
84134;BME280;74235;48.688;9.708;2023-11-21T03:10:35;97009.91;;;20.85;52.00
84134;BME280;74235;48.688;9.708;2023-11-21T03:13:03;97009.63;;;20.87;53.07
84134;BME280;74235;48.688;9.708;2023-11-21T03:15:33;97008.00;;;20.86;51.96
84134;BME280;74235;48.688;9.708;2023-11-21T03:18:00;97013.41;;;20.86;52.10
84134;BME280;74235;48.688;9.708;2023-11-21T03:20:29;97009.63;;;20.87;53.27
84134;BME280;74235;48.688;9.708;2023-11-21T03:22:57;97009.63;;;20.87;52.03
84134;BME280;74235;48.688;9.708;2023-11-21T03:25:24;97008.00;;;20.86;53.56
84134;BME280;74235;48.688;9.708;2023-11-21T03:27:52;97005.59;;;20.84;52.22
84134;BME280;74235;48.688;9.708;2023-11-21T03:30:20;97004.00;;;20.83;52.56
84134;BME280;74235;48.688;9.708;2023-11-21T03:32:50;97004.81;;;20.84;52.95
84134;BME280;74235;48.688;9.708;2023-11-21T03:35:17;97005.91;;;20.83;53.30
84134;BME280;74235;48.688;9.708;2023-11-21T03:37:48;97004.00;;;20.83;52.43
84134;BME280;74235;48.688;9.708;2023-11-21T03:40:15;97004.81;;;20.84;52.37
84134;BME280;74235;48.688;9.708;2023-11-21T03:42:43;97001.31;;;20.83;51.85
84134;BME280;74235;48.688;9.708;2023-11-21T03:45:10;97000.50;;;20.83;52.62
84134;BME280;74235;48.688;9.708;2023-11-21T03:47:41;96998.31;;;20.85;52.11
84134;BME280;74235;48.688;9.708;2023-11-21T03:50:10;97006.41;;;20.85;52.57
84134;BME280;74235;48.688;9.708;2023-11-21T03:52:38;97009.91;;;20.85;52.90
84134;BME280;74235;48.688;9.708;2023-11-21T03:55:06;97004.53;;;20.85;51.77
84134;BME280;74235;48.688;9.708;2023-11-21T03:57:34;97008.00;;;20.86;53.19
84134;BME280;74235;48.688;9.708;2023-11-21T04:00:01;97011.81;;;20.85;52.53
84134;BME280;74235;48.688;9.708;2023-11-21T04:02:38;97008.28;;;20.84;53.53
84134;BME280;74235;48.688;9.708;2023-11-21T04:05:07;97003.41;;;20.86;52.18
84134;BME280;74235;48.688;9.708;2023-11-21T04:07:36;97005.31;;;20.86;53.32
84134;BME280;74235;48.688;9.708;2023-11-21T04:10:07;97009.09;;;20.85;52.31
84134;BME280;74235;48.688;9.708;2023-11-21T04:12:36;97015.03;;;20.87;53.22
84134;BME280;74235;48.688;9.708;2023-11-21T04:15:04;97012.31;;;20.87;52.08
84134;BME280;74235;48.688;9.708;2023-11-21T04:17:32;97018.22;;;20.89;52.37
84134;BME280;74235;48.688;9.708;2023-11-21T04:19:59;97020.41;;;20.87;51.98
84134;BME280;74235;48.688;9.708;2023-11-21T04:22:27;97015.03;;;20.87;52.70
84134;BME280;74235;48.688;9.708;2023-11-21T04:24:56;97015.03;;;20.87;53.13
84134;BME280;74235;48.688;9.708;2023-11-21T04:27:23;97015.03;;;20.87;51.61
84134;BME280;74235;48.688;9.708;2023-11-21T04:29:51;97008.00;;;20.86;53.19
84134;BME280;74235;48.688;9.708;2023-11-21T04:32:18;97016.63;;;20.88;53.30
84134;BME280;74235;48.688;9.708;2023-11-21T04:34:45;97022.31;;;20.86;53.29
84134;BME280;74235;48.688;9.708;2023-11-21T04:37:13;97022.00;;;20.88;52.29
84134;BME280;74235;48.688;9.708;2023-11-21T04:39:41;97022.00;;;20.88;52.50
84134;BME280;74235;48.688;9.708;2023-11-21T04:42:09;97022.00;;;20.88;52.65
84134;BME280;74235;48.688;9.708;2023-11-21T04:44:37;97028.53;;;20.87;53.31
84134;BME280;74235;48.688;9.708;2023-11-21T04:47:05;97033.59;;;20.88;53.04
84134;BME280;74235;48.688;9.708;2023-11-21T04:49:32;97032.81;;;20.88;51.87
84134;BME280;74235;48.688;9.708;2023-11-21T04:52:00;97032.81;;;20.88;51.59
84134;BME280;74235;48.688;9.708;2023-11-21T04:54:28;97030.41;;;20.86;51.42
84134;BME280;74235;48.688;9.708;2023-11-21T04:56:56;97033.91;;;20.87;53.25
84134;BME280;74235;48.688;9.708;2023-11-21T04:59:25;97042.00;;;20.87;51.48
84134;BME280;74235;48.688;9.708;2023-11-21T05:01:54;97042.00;;;20.87;51.97
84134;BME280;74235;48.688;9.708;2023-11-21T05:04:21;97040.41;;;20.86;52.79
84134;BME280;74235;48.688;9.708;2023-11-21T05:06:50;97043.09;;;20.86;53.41
84134;BME280;74235;48.688;9.708;2023-11-21T05:09:17;97039.91;;;20.84;53.08
84134;BME280;74235;48.688;9.708;2023-11-21T05:11:45;97048.78;;;20.84;51.45
84134;BME280;74235;48.688;9.708;2023-11-21T05:14:12;97035.28;;;20.84;52.81
84134;BME280;74235;48.688;9.708;2023-11-21T05:16:42;97045.00;;;20.85;52.93
84134;BME280;74235;48.688;9.708;2023-11-21T05:19:10;97047.19;;;20.83;52.51
84134;BME280;74235;48.688;9.708;2023-11-21T05:21:40;97052.28;;;20.85;51.66
84134;BME280;74235;48.688;9.708;2023-11-21T05:24:07;97047.72;;;20.85;52.16
84134;BME280;74235;48.688;9.708;2023-11-21T05:26:35;97053.41;;;20.84;52.36
84134;BME280;74235;48.688;9.708;2023-11-21T05:29:02;97056.41;;;20.82;53.39
84134;BME280;74235;48.688;9.708;2023-11-21T05:31:30;97065.28;;;20.83;51.89
84134;BME280;74235;48.688;9.708;2023-11-21T05:33:59;97071.78;;;20.82;51.58
84134;BME280;74235;48.688;9.708;2023-11-21T05:36:26;97073.97;;;20.80;52.13
84134;BME280;74235;48.688;9.708;2023-11-21T05:38:54;97067.47;;;20.81;51.77
84134;BME280;74235;48.688;9.708;2023-11-21T05:41:21;97070.19;;;20.81;52.73
84134;BME280;74235;48.688;9.708;2023-11-21T05:43:49;97075.06;;;20.79;52.83
84134;BME280;74235;48.688;9.708;2023-11-21T05:46:16;97078.28;;;20.81;52.92
84134;BME280;74235;48.688;9.708;2023-11-21T05:48:44;97076.69;;;20.80;53.53
84134;BME280;74235;48.688;9.708;2023-11-21T05:51:14;97081.28;;;20.79;51.94
84134;BME280;74235;48.688;9.708;2023-11-21T05:53:41;97086.66;;;20.79;53.29
84134;BME280;74235;48.688;9.708;2023-11-21T05:56:09;97084.78;;;20.80;53.28
84134;BME280;74235;48.688;9.708;2023-11-21T05:58:36;97093.94;;;20.79;52.79
84134;BME280;74235;48.688;9.708;2023-11-21T06:01:05;97090.47;;;20.78;52.66
84134;BME280;74235;48.688;9.708;2023-11-21T06:03:35;97092.19;;;20.88;51.93
84134;BME280;74235;48.688;9.708;2023-11-21T06:06:03;97091.28;;;21.24;50.48
84134;BME280;74235;48.688;9.708;2023-11-21T06:08:33;97096.09;;;21.41;51.02
84134;BME280;74235;48.688;9.708;2023-11-21T06:11:00;97092.50;;;21.59;50.71
84134;BME280;74235;48.688;9.708;2023-11-21T06:13:28;97098.75;;;21.73;49.38
84134;BME280;74235;48.688;9.708;2023-11-21T06:15:55;97086.72;;;21.79;49.56
84134;BME280;74235;48.688;9.708;2023-11-21T06:18:23;97092.50;;;21.86;49.18
84134;BME280;74235;48.688;9.708;2023-11-21T06:20:51;97093.50;;;21.90;48.85
84134;BME280;74235;48.688;9.708;2023-11-21T06:23:20;97089.81;;;21.86;50.66
84134;BME280;74235;48.688;9.708;2023-11-21T06:25:49;97096.44;;;21.80;49.81
84134;BME280;74235;48.688;9.708;2023-11-21T06:28:16;97098.75;;;21.73;50.52
84134;BME280;74235;48.688;9.708;2023-11-21T06:30:45;97108.63;;;21.64;51.00
84134;BME280;74235;48.688;9.708;2023-11-21T06:33:12;97105.72;;;21.60;50.27
84134;BME280;74235;48.688;9.708;2023-11-21T06:35:40;97110.91;;;21.57;50.40
84134;BME280;74235;48.688;9.708;2023-11-21T06:38:08;97106.72;;;21.51;49.85
84134;BME280;74235;48.688;9.708;2023-11-21T06:40:36;97107.31;;;21.48;51.32
84134;BME280;74235;48.688;9.708;2023-11-21T06:43:05;97116.53;;;21.47;51.69
84134;BME280;74235;48.688;9.708;2023-11-21T06:45:34;97112.31;;;21.41;50.59
84134;BME280;74235;48.688;9.708;2023-11-21T06:48:02;97111.72;;;21.44;50.97
84134;BME280;74235;48.688;9.708;2023-11-21T06:50:29;97115.53;;;21.43;51.02
84134;BME280;74235;48.688;9.708;2023-11-21T06:52:57;97123.13;;;21.41;51.37
84134;BME280;74235;48.688;9.708;2023-11-21T06:55:25;97122.94;;;21.37;52.74
84134;BME280;74235;48.688;9.708;2023-11-21T06:57:52;97130.22;;;21.37;51.33
84134;BME280;74235;48.688;9.708;2023-11-21T07:00:22;97134.53;;;21.38;52.37
84134;BME280;74235;48.688;9.708;2023-11-21T07:02:50;97135.34;;;21.38;52.03
84134;BME280;74235;48.688;9.708;2023-11-21T07:05:17;97133.13;;;21.40;51.97
84134;BME280;74235;48.688;9.708;2023-11-21T07:07:49;97134.22;;;21.39;52.99
84134;BME280;74235;48.688;9.708;2023-11-21T07:10:17;97142.03;;;21.41;52.54
84134;BME280;74235;48.688;9.708;2023-11-21T07:12:44;97143.91;;;21.40;52.07
84134;BME280;74235;48.688;9.708;2023-11-21T07:15:12;97140.16;;;21.41;52.24
84134;BME280;74235;48.688;9.708;2023-11-21T07:17:41;97153.34;;;21.43;51.95
84134;BME280;74235;48.688;9.708;2023-11-21T07:20:09;97146.31;;;21.42;51.56
84134;BME280;74235;48.688;9.708;2023-11-21T07:22:38;97153.06;;;21.44;51.77
84134;BME280;74235;48.688;9.708;2023-11-21T07:25:06;97157.66;;;21.44;53.36
84134;BME280;74235;48.688;9.708;2023-11-21T07:27:34;97156.84;;;21.43;52.54
84134;BME280;74235;48.688;9.708;2023-11-21T07:30:04;97153.44;;;21.38;52.08
84134;BME280;74235;48.688;9.708;2023-11-21T07:32:32;97161.63;;;21.33;52.90
84134;BME280;74235;48.688;9.708;2023-11-21T07:35:03;97167.13;;;21.28;52.09
84134;BME280;74235;48.688;9.708;2023-11-21T07:37:30;97169.03;;;21.27;51.70
84134;BME280;74235;48.688;9.708;2023-11-21T07:39:58;97168.22;;;21.27;52.52
84134;BME280;74235;48.688;9.708;2023-11-21T07:42:26;97176.31;;;21.27;52.06
84134;BME280;74235;48.688;9.708;2023-11-21T07:44:54;97173.41;;;21.23;52.86
84134;BME280;74235;48.688;9.708;2023-11-21T07:47:22;97174.53;;;21.22;53.03
84134;BME280;74235;48.688;9.708;2023-11-21T07:49:49;97177.28;;;21.17;51.35
84134;BME280;74235;48.688;9.708;2023-11-21T07:52:18;97181.28;;;21.20;51.43
84134;BME280;74235;48.688;9.708;2023-11-21T07:54:48;97187.38;;;21.12;51.70
84134;BME280;74235;48.688;9.708;2023-11-21T07:57:16;97187.91;;;21.14;51.82
84134;BME280;74235;48.688;9.708;2023-11-21T07:59:43;97191.09;;;21.16;53.33
84134;BME280;74235;48.688;9.708;2023-11-21T08:02:11;97186.13;;;21.23;53.12
84134;BME280;74235;48.688;9.708;2023-11-21T08:04:38;97194.63;;;21.30;53.43
84134;BME280;74235;48.688;9.708;2023-11-21T08:07:06;97195.94;;;21.32;53.16
84134;BME280;74235;48.688;9.708;2023-11-21T08:09:35;97192.16;;;21.33;52.07
84134;BME280;74235;48.688;9.708;2023-11-21T08:12:03;97204.03;;;21.32;53.31
84134;BME280;74235;48.688;9.708;2023-11-21T08:14:32;97191.53;;;21.36;53.73
84134;BME280;74235;48.688;9.708;2023-11-21T08:16:59;97188.56;;;21.38;53.43
84134;BME280;74235;48.688;9.708;2023-11-21T08:19:26;97188.84;;;21.36;51.84
84134;BME280;74235;48.688;9.708;2023-11-21T08:21:54;97190.47;;;21.37;52.68
84134;BME280;74235;48.688;9.708;2023-11-21T08:24:22;97191.25;;;21.38;53.66
84134;BME280;74235;48.688;9.708;2023-11-21T08:26:51;97186.38;;;21.40;53.18
84134;BME280;74235;48.688;9.708;2023-11-21T08:29:19;97190.97;;;21.39;52.39
84134;BME280;74235;48.688;9.708;2023-11-21T08:31:47;97192.88;;;21.39;53.41
84134;BME280;74235;48.688;9.708;2023-11-21T08:34:15;97192.06;;;21.38;52.57
84134;BME280;74235;48.688;9.708;2023-11-21T08:36:43;97195.06;;;21.37;52.99
84134;BME280;74235;48.688;9.708;2023-11-21T08:39:11;97195.56;;;21.39;53.65
84134;BME280;74235;48.688;9.708;2023-11-21T08:41:40;97198.28;;;21.39;53.10
84134;BME280;74235;48.688;9.708;2023-11-21T08:44:10;97204.16;;;21.41;52.61
84134;BME280;74235;48.688;9.708;2023-11-21T08:46:38;97211.78;;;21.39;52.15
84134;BME280;74235;48.688;9.708;2023-11-21T08:49:07;97212.28;;;21.41;53.48
84134;BME280;74235;48.688;9.708;2023-11-21T08:51:34;97207.16;;;21.39;54.21
84134;BME280;74235;48.688;9.708;2023-11-21T08:54:02;97221.50;;;21.40;53.37
84134;BME280;74235;48.688;9.708;2023-11-21T08:56:31;97216.09;;;21.40;53.79
84134;BME280;74235;48.688;9.708;2023-11-21T08:58:59;97218.50;;;21.41;52.99
84134;BME280;74235;48.688;9.708;2023-11-21T09:01:31;97217.69;;;21.41;52.69
84134;BME280;74235;48.688;9.708;2023-11-21T09:03:59;97221.97;;;21.42;52.44
84134;BME280;74235;48.688;9.708;2023-11-21T09:06:26;97219.28;;;21.42;52.61
84134;BME280;74235;48.688;9.708;2023-11-21T09:08:54;97222.78;;;21.42;53.56
84134;BME280;74235;48.688;9.708;2023-11-21T09:11:21;97222.78;;;21.42;53.47
84134;BME280;74235;48.688;9.708;2023-11-21T09:13:49;97217.38;;;21.42;53.67
84134;BME280;74235;48.688;9.708;2023-11-21T09:16:16;97222.78;;;21.42;53.93
84134;BME280;74235;48.688;9.708;2023-11-21T09:18:45;97231.19;;;21.41;52.95
84134;BME280;74235;48.688;9.708;2023-11-21T09:21:13;97228.50;;;21.41;52.69
84134;BME280;74235;48.688;9.708;2023-11-21T09:23:44;97239.81;;;21.43;53.20
84134;BME280;74235;48.688;9.708;2023-11-21T09:26:12;97234.41;;;21.43;52.89
84134;BME280;74235;48.688;9.708;2023-11-21T09:28:39;97242.50;;;21.43;53.36
84134;BME280;74235;48.688;9.708;2023-11-21T09:31:07;97239.53;;;21.44;53.19
84134;BME280;74235;48.688;9.708;2023-11-21T09:33:36;97240.59;;;21.43;53.25
84134;BME280;74235;48.688;9.708;2023-11-21T09:36:11;97246.00;;;21.43;54.18
84134;BME280;74235;48.688;9.708;2023-11-21T09:38:38;97250.63;;;21.43;53.71
84134;BME280;74235;48.688;9.708;2023-11-21T09:41:14;97245.72;;;21.45;54.07
84134;BME280;74235;48.688;9.708;2023-11-21T09:43:46;97250.69;;;21.38;54.21
84134;BME280;74235;48.688;9.708;2023-11-21T09:46:15;97249.50;;;21.44;54.02
84134;BME280;74235;48.688;9.708;2023-11-21T09:48:50;97252.81;;;21.41;53.27
84134;BME280;74235;48.688;9.708;2023-11-21T09:51:21;97256.53;;;21.45;52.68
84134;BME280;74235;48.688;9.708;2023-11-21T09:53:51;97253.81;;;21.45;54.04
84134;BME280;74235;48.688;9.708;2023-11-21T09:56:21;97256.59;;;21.40;53.76
84134;BME280;74235;48.688;9.708;2023-11-21T09:58:52;97255.00;;;21.39;52.65
84134;BME280;74235;48.688;9.708;2023-11-21T10:01:20;97260.41;;;21.39;52.77
84134;BME280;74235;48.688;9.708;2023-11-21T10:03:48;97262.00;;;21.40;52.53
84134;BME280;74235;48.688;9.708;2023-11-21T10:06:16;97256.91;;;21.38;53.33
84134;BME280;74235;48.688;9.708;2023-11-21T10:08:46;97255.00;;;21.39;52.82
84134;BME280;74235;48.688;9.708;2023-11-21T10:11:23;97258.50;;;21.39;54.01
84134;BME280;74235;48.688;9.708;2023-11-21T10:13:53;97254.41;;;21.42;53.15
84134;BME280;74235;48.688;9.708;2023-11-21T10:16:22;97256.59;;;21.40;53.11
84134;BME280;74235;48.688;9.708;2023-11-21T10:18:53;97266.84;;;21.43;53.54
84134;BME280;74235;48.688;9.708;2023-11-21T10:21:38;97266.03;;;21.42;53.96
84134;BME280;74235;48.688;9.708;2023-11-21T10:24:07;97265.44;;;21.45;53.42
84134;BME280;74235;48.688;9.708;2023-11-21T10:26:36;97263.03;;;21.44;53.74
84134;BME280;74235;48.688;9.708;2023-11-21T10:29:19;97263.03;;;21.44;53.64
84134;BME280;74235;48.688;9.708;2023-11-21T10:31:49;97271.63;;;21.46;52.89
84134;BME280;74235;48.688;9.708;2023-11-21T10:34:19;97268.44;;;21.44;53.80
84134;BME280;74235;48.688;9.708;2023-11-21T10:36:47;97273.25;;;21.47;52.72
84134;BME280;74235;48.688;9.708;2023-11-21T10:39:16;97278.13;;;21.45;53.37
84134;BME280;74235;48.688;9.708;2023-11-21T10:41:47;97275.94;;;21.47;54.26
84134;BME280;74235;48.688;9.708;2023-11-21T10:44:16;97282.44;;;21.46;53.95
84134;BME280;74235;48.688;9.708;2023-11-21T10:46:52;97275.13;;;21.46;53.39
84134;BME280;74235;48.688;9.708;2023-11-21T10:49:25;97272.72;;;21.45;53.53
84134;BME280;74235;48.688;9.708;2023-11-21T10:51:53;97269.00;;;21.41;53.22
84134;BME280;74235;48.688;9.708;2023-11-21T10:54:24;97262.59;;;21.37;52.21
84134;BME280;74235;48.688;9.708;2023-11-21T10:56:56;97263.19;;;21.34;53.34
84134;BME280;74235;48.688;9.708;2023-11-21T10:59:25;97260.28;;;21.30;52.50
84134;BME280;74235;48.688;9.708;2023-11-21T11:01:57;97253.56;;;21.28;52.49
84134;BME280;74235;48.688;9.708;2023-11-21T11:04:27;97254.75;;;21.22;52.92
84134;BME280;74235;48.688;9.708;2023-11-21T11:06:57;97261.75;;;21.23;53.12
84134;BME280;74235;48.688;9.708;2023-11-21T11:09:26;97259.63;;;21.20;51.86
84134;BME280;74235;48.688;9.708;2023-11-21T11:11:54;97260.72;;;21.19;51.44
84134;BME280;74235;48.688;9.708;2023-11-21T11:14:22;97261.31;;;21.16;52.99
84134;BME280;74235;48.688;9.708;2023-11-21T11:16:54;97249.50;;;21.12;51.90
84134;BME280;74235;48.688;9.708;2023-11-21T11:19:23;97261.59;;;21.14;51.68
84134;BME280;74235;48.688;9.708;2023-11-21T11:21:59;97254.88;;;21.12;51.92
84134;BME280;74235;48.688;9.708;2023-11-21T11:24:45;97257.59;;;21.12;52.34
84134;BME280;74235;48.688;9.708;2023-11-21T11:27:24;97260.59;;;21.10;51.73
84134;BME280;74235;48.688;9.708;2023-11-21T11:30:06;97253.59;;;21.09;51.88
84134;BME280;74235;48.688;9.708;2023-11-21T11:32:45;97251.16;;;21.08;53.06
84134;BME280;74235;48.688;9.708;2023-11-21T11:35:21;97251.47;;;21.06;52.26
84134;BME280;74235;48.688;9.708;2023-11-21T11:37:50;97253.38;;;21.06;53.24
84134;BME280;74235;48.688;9.708;2023-11-21T11:40:19;97254.16;;;21.06;51.59
84134;BME280;74235;48.688;9.708;2023-11-21T11:42:56;97251.75;;;21.05;51.61
84134;BME280;74235;48.688;9.708;2023-11-21T11:45:32;97254.44;;;21.05;51.69
84134;BME280;74235;48.688;9.708;2023-11-21T11:48:01;97265.25;;;21.05;51.74
84134;BME280;74235;48.688;9.708;2023-11-21T11:50:31;97263.66;;;21.04;51.46
84134;BME280;74235;48.688;9.708;2023-11-21T11:53:12;97263.66;;;21.04;52.73
84134;BME280;74235;48.688;9.708;2023-11-21T11:55:41;97256.66;;;21.03;52.05
84134;BME280;74235;48.688;9.708;2023-11-21T11:58:10;97256.66;;;21.03;52.01
84134;BME280;74235;48.688;9.708;2023-11-21T12:00:39;97265.06;;;21.01;52.93
84134;BME280;74235;48.688;9.708;2023-11-21T12:03:09;97253.44;;;21.01;52.34
84134;BME280;74235;48.688;9.708;2023-11-21T12:05:37;97257.25;;;21.00;53.08
84134;BME280;74235;48.688;9.708;2023-11-21T12:08:08;97250.25;;;20.99;51.96
84134;BME280;74235;48.688;9.708;2023-11-21T12:10:38;97258.34;;;20.99;53.38
84134;BME280;74235;48.688;9.708;2023-11-21T12:13:09;97259.44;;;20.98;52.22
84134;BME280;74235;48.688;9.708;2023-11-21T12:15:39;97264.84;;;20.98;52.17
84134;BME280;74235;48.688;9.708;2023-11-21T12:18:09;97261.03;;;20.99;51.46
84134;BME280;74235;48.688;9.708;2023-11-21T12:20:37;97270.25;;;20.98;52.20
84134;BME280;74235;48.688;9.708;2023-11-21T12:23:08;97268.34;;;20.98;53.25
84134;BME280;74235;48.688;9.708;2023-11-21T12:25:37;97270.25;;;20.98;53.51
84134;BME280;74235;48.688;9.708;2023-11-21T12:28:08;97267.84;;;20.96;51.40
84134;BME280;74235;48.688;9.708;2023-11-21T12:30:36;97269.44;;;20.97;52.68
84134;BME280;74235;48.688;9.708;2023-11-21T12:33:06;97270.25;;;20.98;51.46
84134;BME280;74235;48.688;9.708;2023-11-21T12:35:37;97264.03;;;20.97;51.94
84134;BME280;74235;48.688;9.708;2023-11-21T12:38:05;97275.66;;;20.98;51.50
84134;BME280;74235;48.688;9.708;2023-11-21T12:40:33;97272.13;;;20.97;51.47
84134;BME280;74235;48.688;9.708;2023-11-21T12:43:00;97279.41;;;20.97;52.52
84134;BME280;74235;48.688;9.708;2023-11-21T12:45:33;97282.66;;;20.99;52.96
84134;BME280;74235;48.688;9.708;2023-11-21T12:48:02;97277.25;;;20.99;52.68
84134;BME280;74235;48.688;9.708;2023-11-21T12:50:35;97274.03;;;20.97;52.57
84134;BME280;74235;48.688;9.708;2023-11-21T12:53:05;97281.03;;;20.98;51.76
84134;BME280;74235;48.688;9.708;2023-11-21T12:55:36;97280.72;;;20.99;53.37
84134;BME280;74235;48.688;9.708;2023-11-21T12:58:08;97277.53;;;20.97;51.78
84134;BME280;74235;48.688;9.708;2023-11-21T13:00:42;97271.84;;;20.99;51.42
84134;BME280;74235;48.688;9.708;2023-11-21T13:03:11;97271.84;;;20.99;52.02
84134;BME280;74235;48.688;9.708;2023-11-21T13:05:40;97275.66;;;20.98;53.06
84134;BME280;74235;48.688;9.708;2023-11-21T13:08:14;97285.63;;;20.97;52.05